Time;durP1;ratioP1;P1;durP2;ratioP2;P2;SDS_P1;SDS_P2;PMS_P1;PMS_P2;Temp;Humidity;BMP_temperature;BMP_pressure;BME280_temperature;BME280_humidity;BME280_pressure;Samples;Min_cycle;Max_cycle;Signal;HPM_P1;HPM_P2
2023/06/24 00:00:31;;;;;;;5.70;5.07;;;;;;;;;;6209072;23;20460;-86
2023/06/24 00:03:01;;;;;;;5.35;4.70;;;;;;;;;;6211549;23;20028;-86
2023/06/24 00:05:27;;;;;;;5.55;4.88;;;;;;;;;;6208641;23;20025;-86
2023/06/24 00:07:57;;;;;;;4.65;4.15;;;;;;;;;;6209129;23;20091;-86
2023/06/24 00:10:23;;;;;;;7.07;4.80;;;;;;;;;;6210193;23;20503;-86
2023/06/24 00:12:49;;;;;;;4.38;3.97;;;;;;;;;;6211086;23;20079;-86
2023/06/24 00:15:15;;;;;;;4.93;3.92;;;;;;;;;;6210157;23;20088;-88
2023/06/24 00:17:41;;;;;;;5.47;4.18;;;;;;;;;;6209180;23;20450;-87
2023/06/24 00:20:09;;;;;;;7.05;3.80;;;;;;;;;;6210753;23;20365;-87
2023/06/24 00:22:35;;;;;;;5.22;4.00;;;;;;;;;;6209383;23;20048;-87
2023/06/24 00:25:01;;;;;;;5.03;3.25;;;;;;;;;;6210459;23;20016;-86
2023/06/24 00:27:27;;;;;;;5.25;3.50;;;;;;;;;;6208745;23;20430;-86
2023/06/24 00:29:53;;;;;;;5.60;4.20;;;;;;;;;;6208873;23;20020;-87
2023/06/24 00:32:19;;;;;;;5.25;3.50;;;;;;;;;;6209892;23;20021;-87
2023/06/24 00:34:47;;;;;;;5.68;4.50;;;;;;;;;;6210951;23;20067;-87
2023/06/24 00:37:14;;;;;;;5.68;4.00;;;;;;;;;;6210331;23;20023;-87
2023/06/24 00:39:40;;;;;;;4.50;4.05;;;;;;;;;;6210767;23;20063;-87
2023/06/24 00:42:06;;;;;;;4.70;3.78;;;;;;;;;;6211132;23;20023;-87
2023/06/24 00:44:32;;;;;;;6.10;3.75;;;;;;;;;;6212292;23;20075;-86
2023/06/24 00:46:58;;;;;;;4.95;3.95;;;;;;;;;;6186181;23;20031;-86
2023/06/24 00:49:24;;;;;;;3.42;3.03;;;;;;;;;;6210678;23;20016;-86
2023/06/24 00:51:50;;;;;;;5.30;4.05;;;;;;;;;;6209808;23;20417;-86
2023/06/24 00:54:19;;;;;;;4.68;4.18;;;;;;;;;;6211885;23;20456;-86
2023/06/24 00:56:46;;;;;;;5.05;3.67;;;;;;;;;;6212293;23;20422;-86
2023/06/24 00:59:14;;;;;;;5.22;3.80;;;;;;;;;;6209855;23;20016;-87
2023/06/24 01:01:40;;;;;;;5.40;3.95;;;;;;;;;;6185801;23;20146;-87
2023/06/24 01:04:07;;;;;;;5.38;4.22;;;;;;;;;;6212456;23;20021;-87
2023/06/24 01:06:35;;;;;;;5.22;3.90;;;;;;;;;;6212181;23;20327;-87
2023/06/24 01:09:02;;;;;;;6.72;4.43;;;;;;;;;;6212660;23;20012;-87
2023/06/24 01:11:28;;;;;;;4.82;3.97;;;;;;;;;;6212375;23;20016;-87
2023/06/24 01:13:54;;;;;;;7.25;4.40;;;;;;;;;;6211539;23;20364;-86
2023/06/24 01:16:33;;;;;;;6.20;4.45;;;;;;;;;;6212276;23;20066;-86
2023/06/24 01:19:04;;;;;;;9.75;4.97;;;;;;;;;;6212652;23;20106;-86
2023/06/24 01:21:29;;;;;;;;;;;;;;;;;;6210650;23;20088;-86
2023/06/24 01:23:58;;;;;;;4.38;3.40;;;;;;;;;;6210800;23;19990;-86
2023/06/24 01:26:42;;;;;;;5.85;4.07;;;;;;;;;;6209723;23;20052;-86
2023/06/24 01:29:14;;;;;;;5.63;3.90;;;;;;;;;;6210427;23;20024;-86
2023/06/24 01:31:53;;;;;;;7.00;4.93;;;;;;;;;;6212190;23;20013;-86
2023/06/24 01:34:32;;;;;;;4.32;3.78;;;;;;;;;;6210213;23;20031;-86
2023/06/24 01:37:09;;;;;;;5.13;4.38;;;;;;;;;;6209258;23;20048;-86
2023/06/24 01:39:37;;;;;;;6.55;4.50;;;;;;;;;;6210797;23;20023;-86
2023/06/24 01:42:06;;;;;;;5.93;5.10;;;;;;;;;;6210462;23;20016;-86
2023/06/24 01:44:33;;;;;;;6.05;4.75;;;;;;;;;;6210034;23;20029;-86
2023/06/24 01:46:59;;;;;;;7.00;4.82;;;;;;;;;;6212346;23;20403;-86
2023/06/24 01:49:26;;;;;;;5.35;3.85;;;;;;;;;;6212107;23;20307;-86
2023/06/24 01:51:52;;;;;;;7.05;4.05;;;;;;;;;;6209378;23;20048;-86
2023/06/24 01:54:19;;;;;;;4.85;3.55;;;;;;;;;;6211897;23;20088;-86
2023/06/24 01:56:47;;;;;;;4.88;3.60;;;;;;;;;;6211559;23;20027;-86
2023/06/24 01:59:14;;;;;;;6.13;4.38;;;;;;;;;;6211898;23;20009;-86
2023/06/24 02:01:40;;;;;;;8.38;4.82;;;;;;;;;;6212441;23;20036;-86
2023/06/24 02:04:09;;;;;;;5.95;4.32;;;;;;;;;;6212243;23;20140;-86
2023/06/24 02:06:36;;;;;;;7.93;4.75;;;;;;;;;;6209597;23;20052;-86
2023/06/24 02:09:03;;;;;;;8.98;5.57;;;;;;;;;;6212297;23;20338;-86
2023/06/24 02:11:31;;;;;;;7.30;5.43;;;;;;;;;;6211969;23;20048;-86
2023/06/24 02:13:59;;;;;;;8.60;5.75;;;;;;;;;;6210380;23;20316;-86
2023/06/24 02:16:26;;;;;;;6.97;5.32;;;;;;;;;;6209901;23;20123;-86
2023/06/24 02:18:53;;;;;;;6.00;4.88;;;;;;;;;;6209795;23;20374;-86
2023/06/24 02:21:19;;;;;;;7.07;5.22;;;;;;;;;;6211332;23;20075;-86
2023/06/24 02:23:47;;;;;;;7.57;5.35;;;;;;;;;;6209729;23;20017;-86
2023/06/24 02:26:13;;;;;;;7.53;5.47;;;;;;;;;;6209974;23;20021;-86
2023/06/24 02:28:40;;;;;;;6.82;5.28;;;;;;;;;;6211450;23;20016;-86
2023/06/24 02:31:06;;;;;;;11.82;6.07;;;;;;;;;;6212037;23;20019;-86
2023/06/24 02:33:32;;;;;;;7.43;5.85;;;;;;;;;;6209588;23;20020;-86
2023/06/24 02:35:58;;;;;;;7.03;5.70;;;;;;;;;;6209396;23;20104;-86
2023/06/24 02:38:24;;;;;;;8.25;5.68;;;;;;;;;;6209573;23;20008;-86
2023/06/24 02:40:51;;;;;;;7.88;5.70;;;;;;;;;;6209901;23;20012;-86
2023/06/24 02:43:17;;;;;;;6.78;5.25;;;;;;;;;;6209066;23;20017;-86
2023/06/24 02:45:44;;;;;;;6.38;5.45;;;;;;;;;;6211682;23;20008;-86
2023/06/24 02:48:10;;;;;;;7.00;5.07;;;;;;;;;;6184312;23;20044;-86
2023/06/24 02:50:38;;;;;;;7.68;5.28;;;;;;;;;;6209031;23;20013;-86
2023/06/24 02:53:04;;;;;;;6.10;5.38;;;;;;;;;;6211439;23;20017;-86
2023/06/24 02:55:31;;;;;;;5.30;4.78;;;;;;;;;;6209906;23;20022;-86
2023/06/24 02:57:57;;;;;;;6.20;4.78;;;;;;;;;;6209751;23;20024;-86
2023/06/24 03:00:24;;;;;;;6.95;5.10;;;;;;;;;;6209316;23;20024;-86
2023/06/24 03:02:51;;;;;;;7.88;5.13;;;;;;;;;;6211003;23;20054;-86
2023/06/24 03:05:18;;;;;;;6.35;4.65;;;;;;;;;;6208681;23;20017;-86
2023/06/24 03:07:44;;;;;;;5.97;4.82;;;;;;;;;;6209633;23;20023;-86
2023/06/24 03:10:10;;;;;;;8.48;5.25;;;;;;;;;;6209660;23;20016;-86
2023/06/24 03:12:36;;;;;;;6.25;4.97;;;;;;;;;;6211459;23;20013;-86
2023/06/24 03:15:03;;;;;;;6.70;5.07;;;;;;;;;;6209521;23;20021;-86
2023/06/24 03:17:30;;;;;;;6.30;4.97;;;;;;;;;;6209181;23;20051;-86
2023/06/24 03:19:56;;;;;;;7.60;5.47;;;;;;;;;;6208793;23;20080;-86
2023/06/24 03:22:22;;;;;;;10.52;5.75;;;;;;;;;;6209406;23;20016;-86
2023/06/24 03:24:49;;;;;;;8.38;5.47;;;;;;;;;;6209145;23;20450;-86
2023/06/24 03:27:15;;;;;;;8.18;5.45;;;;;;;;;;6209480;23;20020;-86
2023/06/24 03:29:41;;;;;;;7.47;5.38;;;;;;;;;;6209082;23;20023;-86
2023/06/24 03:32:07;;;;;;;9.75;5.50;;;;;;;;;;6208412;23;20036;-87
2023/06/24 03:34:33;;;;;;;7.20;5.95;;;;;;;;;;6209390;23;20380;-86
2023/06/24 03:36:59;;;;;;;8.90;5.47;;;;;;;;;;6211371;23;20020;-87
2023/06/24 03:39:26;;;;;;;8.23;6.30;;;;;;;;;;6208950;23;20429;-86
2023/06/24 03:41:51;;;;;;;9.65;5.68;;;;;;;;;;6208952;23;20456;-86
2023/06/24 03:44:18;;;;;;;8.75;5.72;;;;;;;;;;6208725;23;20016;-86
2023/06/24 03:46:44;;;;;;;8.30;5.63;;;;;;;;;;6203904;23;20025;-86
2023/06/24 03:49:10;;;;;;;8.95;6.40;;;;;;;;;;6207791;23;20063;-86
2023/06/24 03:51:36;;;;;;;8.50;5.70;;;;;;;;;;6209514;23;20092;-86
2023/06/24 03:54:02;;;;;;;11.18;6.25;;;;;;;;;;6209515;23;20083;-86
2023/06/24 03:56:28;;;;;;;11.80;5.95;;;;;;;;;;6210934;23;20021;-86
2023/06/24 03:58:54;;;;;;;10.75;6.72;;;;;;;;;;6209216;23;20085;-86
2023/06/24 04:01:20;;;;;;;8.25;6.07;;;;;;;;;;6207839;23;20060;-86
2023/06/24 04:03:47;;;;;;;9.95;6.10;;;;;;;;;;6208115;23;20056;-86
2023/06/24 04:06:13;;;;;;;10.13;6.03;;;;;;;;;;6209919;23;20020;-86
2023/06/24 04:08:39;;;;;;;11.10;6.10;;;;;;;;;;6211307;23;20458;-87
2023/06/24 04:11:06;;;;;;;9.52;6.55;;;;;;;;;;6213327;23;20075;-86
2023/06/24 04:13:35;;;;;;;11.32;6.07;;;;;;;;;;6213159;23;20021;-86
2023/06/24 04:16:01;;;;;;;9.50;6.45;;;;;;;;;;6210314;23;20044;-86
2023/06/24 04:18:27;;;;;;;9.63;5.85;;;;;;;;;;6212782;23;20020;-86
2023/06/24 04:20:54;;;;;;;7.20;5.57;;;;;;;;;;6212852;23;20047;-86
2023/06/24 04:23:20;;;;;;;7.30;5.28;;;;;;;;;;6210041;23;20016;-86
2023/06/24 04:25:46;;;;;;;7.57;5.85;;;;;;;;;;6211440;23;20024;-86
2023/06/24 04:28:12;;;;;;;10.48;6.57;;;;;;;;;;6212626;23;20013;-86
2023/06/24 04:30:41;;;;;;;10.30;6.53;;;;;;;;;;6212720;23;20021;-86
2023/06/24 04:33:07;;;;;;;8.43;5.95;;;;;;;;;;6212759;23;20012;-86
2023/06/24 04:35:33;;;;;;;8.40;6.03;;;;;;;;;;6210527;23;20044;-87
2023/06/24 04:38:00;;;;;;;8.43;6.28;;;;;;;;;;6210791;23;20331;-86
2023/06/24 04:40:26;;;;;;;8.52;6.32;;;;;;;;;;6211077;23;20020;-86
2023/06/24 04:42:52;;;;;;;9.93;5.85;;;;;;;;;;6213067;23;20008;-86
2023/06/24 04:45:18;;;;;;;8.13;5.90;;;;;;;;;;6212380;23;20016;-87
2023/06/24 04:47:44;;;;;;;9.07;6.18;;;;;;;;;;6212724;23;20021;-87
2023/06/24 04:50:10;;;;;;;8.60;6.15;;;;;;;;;;6212758;23;20023;-86
2023/06/24 04:52:37;;;;;;;8.48;6.68;;;;;;;;;;6209851;23;20027;-86
2023/06/24 04:55:03;;;;;;;9.95;6.32;;;;;;;;;;6210523;23;20024;-87
2023/06/24 04:57:30;;;;;;;7.68;5.47;;;;;;;;;;6212403;23;20036;-86
2023/06/24 04:59:57;;;;;;;10.23;6.25;;;;;;;;;;6211462;23;20573;-86
2023/06/24 05:02:23;;;;;;;7.97;5.35;;;;;;;;;;6209396;23;20626;-86
2023/06/24 05:04:49;;;;;;;8.75;6.45;;;;;;;;;;6209691;23;20023;-87
2023/06/24 05:07:15;;;;;;;8.05;6.10;;;;;;;;;;6210164;23;20312;-86
2023/06/24 05:09:43;;;;;;;9.30;6.82;;;;;;;;;;6209746;23;20035;-86
2023/06/24 05:12:09;;;;;;;8.60;6.93;;;;;;;;;;6211986;23;20016;-86
2023/06/24 05:14:36;;;;;;;10.82;6.50;;;;;;;;;;6208931;23;20055;-86
2023/06/24 05:17:02;;;;;;;9.40;6.85;;;;;;;;;;6208881;23;20453;-88
2023/06/24 05:19:28;;;;;;;9.52;6.93;;;;;;;;;;6184647;23;20012;-89
2023/06/24 05:21:54;;;;;;;7.90;6.15;;;;;;;;;;6210123;23;20089;-87
2023/06/24 05:24:20;;;;;;;11.13;6.95;;;;;;;;;;6209847;23;20021;-87
2023/06/24 05:26:49;;;;;;;8.02;6.38;;;;;;;;;;6209969;23;20020;-86
2023/06/24 05:29:15;;;;;;;12.05;5.85;;;;;;;;;;6210086;23;20378;-86
2023/06/24 05:31:41;;;;;;;8.95;7.25;;;;;;;;;;6209237;23;20023;-86
2023/06/24 05:34:07;;;;;;;9.73;6.72;;;;;;;;;;6209230;23;20028;-86
2023/06/24 05:36:33;;;;;;;9.68;7.32;;;;;;;;;;6209693;23;20539;-85
2023/06/24 05:38:59;;;;;;;9.63;6.43;;;;;;;;;;6211918;23;20151;-86
2023/06/24 05:41:25;;;;;;;11.70;6.53;;;;;;;;;;6210038;23;20017;-86
2023/06/24 05:44:02;;;;;;;9.65;7.47;;;;;;;;;;6209161;23;20020;-85
2023/06/24 05:46:28;;;;;;;9.02;6.57;;;;;;;;;;6210040;23;20016;-85
2023/06/24 05:48:54;;;;;;;8.18;6.07;;;;;;;;;;6209807;23;20022;-84
2023/06/24 05:51:20;;;;;;;8.40;6.30;;;;;;;;;;6210451;23;20042;-85
2023/06/24 05:53:46;;;;;;;10.40;6.60;;;;;;;;;;6207698;23;20020;-84
2023/06/24 05:56:12;;;;;;;9.15;6.18;;;;;;;;;;6208852;23;20402;-84
2023/06/24 05:58:38;;;;;;;10.10;7.25;;;;;;;;;;6208531;23;20016;-84
2023/06/24 06:01:04;;;;;;;8.20;6.22;;;;;;;;;;6210309;23;20079;-84
2023/06/24 06:03:30;;;;;;;9.70;6.57;;;;;;;;;;6207968;23;20335;-82
2023/06/24 06:05:56;;;;;;;9.18;6.40;;;;;;;;;;6209178;23;20434;-84
2023/06/24 06:08:22;;;;;;;9.27;6.97;;;;;;;;;;6207706;23;20069;-83
2023/06/24 06:10:48;;;;;;;11.02;6.28;;;;;;;;;;6209790;23;20412;-84
2023/06/24 06:13:14;;;;;;;9.60;6.72;;;;;;;;;;6209520;23;20515;-83
2023/06/24 06:15:40;;;;;;;11.30;6.45;;;;;;;;;;6211384;23;20084;-84
2023/06/24 06:18:06;;;;;;;8.38;6.38;;;;;;;;;;6207719;23;20055;-84
2023/06/24 06:20:32;;;;;;;8.82;6.90;;;;;;;;;;6209858;23;20074;-83
2023/06/24 06:22:58;;;;;;;9.70;6.22;;;;;;;;;;6208339;23;20040;-84
2023/06/24 06:25:24;;;;;;;7.85;6.28;;;;;;;;;;6207548;23;20070;-83
2023/06/24 06:27:50;;;;;;;9.10;6.55;;;;;;;;;;6208109;23;20070;-84
2023/06/24 06:30:16;;;;;;;10.30;6.60;;;;;;;;;;6209126;23;20066;-84
2023/06/24 06:32:42;;;;;;;8.23;6.03;;;;;;;;;;6209282;23;20043;-84
2023/06/24 06:35:08;;;;;;;9.45;6.50;;;;;;;;;;6209181;23;20110;-84
2023/06/24 06:37:34;;;;;;;7.32;5.60;;;;;;;;;;6210842;23;20016;-84
2023/06/24 06:40:00;;;;;;;7.90;5.93;;;;;;;;;;6203843;23;20085;-84
2023/06/24 06:42:26;;;;;;;8.95;6.93;;;;;;;;;;6210152;23;20019;-83
2023/06/24 06:44:52;;;;;;;8.48;5.80;;;;;;;;;;6209273;23;20044;-89
2023/06/24 06:47:18;;;;;;;8.73;5.88;;;;;;;;;;6207236;23;20017;-90
2023/06/24 06:49:44;;;;;;;7.38;5.70;;;;;;;;;;6210484;23;20013;-89
2023/06/24 06:52:10;;;;;;;10.38;7.28;;;;;;;;;;6209271;23;20021;-86
2023/06/24 06:54:36;;;;;;;7.47;6.10;;;;;;;;;;6208650;23;20527;-92
2023/06/24 06:57:05;;;;;;;8.80;6.30;;;;;;;;;;6183446;23;20020;-90
2023/06/24 06:59:32;;;;;;;8.52;5.93;;;;;;;;;;6210075;23;20242;-91
2023/06/24 07:01:58;;;;;;;7.43;6.10;;;;;;;;;;6207966;23;20350;-90
2023/06/24 07:04:24;;;;;;;7.03;5.70;;;;;;;;;;6210066;23;20044;-92
2023/06/24 07:06:50;;;;;;;8.77;5.93;;;;;;;;;;6208365;23;20013;-92
2023/06/24 07:09:16;;;;;;;9.65;6.50;;;;;;;;;;6210561;23;20482;-89
2023/06/24 07:11:43;;;;;;;7.30;6.32;;;;;;;;;;6208858;23;20017;-92
2023/06/24 07:14:09;;;;;;;8.57;5.75;;;;;;;;;;6209043;23;20354;-90
2023/06/24 07:16:35;;;;;;;9.25;6.13;;;;;;;;;;6209283;23;20013;-91
2023/06/24 07:19:01;;;;;;;10.18;6.07;;;;;;;;;;6208775;23;20084;-91
2023/06/24 07:21:27;;;;;;;8.13;5.95;;;;;;;;;;6210156;23;20359;-90
2023/06/24 07:23:53;;;;;;;10.98;6.60;;;;;;;;;;6211340;23;20055;-89
2023/06/24 07:26:19;;;;;;;10.52;6.68;;;;;;;;;;6210964;23;20028;-91
2023/06/24 07:28:47;;;;;;;10.55;6.97;;;;;;;;;;6209542;23;20150;-90
2023/06/24 07:31:13;;;;;;;8.98;6.20;;;;;;;;;;6209369;23;20458;-89
2023/06/24 07:33:39;;;;;;;9.05;6.50;;;;;;;;;;6208853;23;20464;-90
2023/06/24 07:36:05;;;;;;;8.50;6.90;;;;;;;;;;6208704;23;20016;-86
2023/06/24 07:38:31;;;;;;;9.00;7.07;;;;;;;;;;6209876;23;20009;-89
2023/06/24 07:40:57;;;;;;;8.93;6.65;;;;;;;;;;6207902;23;20051;-88
2023/06/24 07:43:23;;;;;;;10.15;6.63;;;;;;;;;;6211122;23;20039;-88
2023/06/24 07:45:49;;;;;;;8.38;6.53;;;;;;;;;;6207421;23;20025;-89
2023/06/24 07:48:15;;;;;;;10.05;6.85;;;;;;;;;;6210355;23;20326;-89
2023/06/24 07:50:41;;;;;;;10.30;6.25;;;;;;;;;;6208170;23;20390;-89
2023/06/24 07:53:07;;;;;;;8.25;5.85;;;;;;;;;;6208490;23;20017;-87
2023/06/24 07:55:33;;;;;;;9.73;6.82;;;;;;;;;;6208961;23;20104;-87
2023/06/24 07:57:59;;;;;;;10.27;7.20;;;;;;;;;;6209338;23;20099;-85
2023/06/24 08:00:25;;;;;;;7.22;5.75;;;;;;;;;;6210104;23;20442;-85
2023/06/24 08:02:51;;;;;;;7.78;6.28;;;;;;;;;;6208284;23;20017;-85
2023/06/24 08:05:20;;;;;;;8.10;6.53;;;;;;;;;;6208189;23;20059;-85
2023/06/24 08:07:46;;;;;;;8.52;6.80;;;;;;;;;;6211258;23;20012;-86
2023/06/24 08:10:12;;;;;;;9.40;6.53;;;;;;;;;;6210266;23;20092;-86
2023/06/24 08:12:38;;;;;;;10.07;6.35;;;;;;;;;;6207468;23;20048;-85
2023/06/24 08:15:04;;;;;;;8.20;5.97;;;;;;;;;;6207349;23;20084;-85
2023/06/24 08:17:30;;;;;;;9.60;6.88;;;;;;;;;;6205601;23;20092;-85
2023/06/24 08:19:56;;;;;;;8.13;6.40;;;;;;;;;;6208241;23;20470;-85
2023/06/24 08:22:22;;;;;;;13.80;8.07;;;;;;;;;;6209316;23;20517;-84
2023/06/24 08:24:48;;;;;;;10.35;6.30;;;;;;;;;;6207770;23;20059;-85
2023/06/24 08:27:14;;;;;;;6.57;5.47;;;;;;;;;;6209246;23;20434;-84
2023/06/24 08:29:40;;;;;;;8.93;5.72;;;;;;;;;;6208395;23;20017;-85
2023/06/24 08:32:06;;;;;;;11.45;5.18;;;;;;;;;;6207452;23;20009;-84
2023/06/24 08:34:33;;;;;;;6.80;4.68;;;;;;;;;;6208671;23;20043;-85
2023/06/24 08:36:59;;;;;;;8.07;4.80;;;;;;;;;;6207462;23;20031;-85
2023/06/24 08:39:25;;;;;;;6.88;4.75;;;;;;;;;;6207655;23;20013;-85
2023/06/24 08:41:51;;;;;;;6.28;4.38;;;;;;;;;;6208555;23;20035;-85
2023/06/24 08:44:17;;;;;;;7.97;5.75;;;;;;;;;;6207680;23;20021;-85
2023/06/24 08:46:44;;;;;;;6.80;5.40;;;;;;;;;;6207241;23;20020;-85
2023/06/24 08:49:13;;;;;;;7.38;5.00;;;;;;;;;;6181744;23;20062;-85
2023/06/24 08:51:41;;;;;;;7.40;5.20;;;;;;;;;;6207787;23;20020;-85
2023/06/24 08:54:08;;;;;;;9.55;4.85;;;;;;;;;;6210102;23;20009;-85
2023/06/24 08:56:35;;;;;;;5.80;4.57;;;;;;;;;;6210101;23;20024;-84
2023/06/24 08:59:01;;;;;;;6.32;4.53;;;;;;;;;;6212806;23;20025;-86
2023/06/24 09:01:27;;;;;;;5.88;4.38;;;;;;;;;;6210613;23;20020;-84
2023/06/24 09:03:53;;;;;;;6.43;4.45;;;;;;;;;;6210265;23;20013;-82
2023/06/24 09:06:19;;;;;;;5.50;4.13;;;;;;;;;;6211455;23;20390;-84
2023/06/24 09:08:55;;;;;;;5.25;3.40;;;;;;;;;;6209433;23;20016;-83
2023/06/24 09:11:22;;;;;;;;;;;;;;;;;;6210097;23;20343;-84
2023/06/24 09:13:48;;;;;;;6.38;4.30;;;;;;;;;;6212313;23;19943;-85
2023/06/24 09:16:14;;;;;;;6.10;4.53;;;;;;;;;;6210107;23;20012;-84
2023/06/24 09:18:40;;;;;;;5.68;3.97;;;;;;;;;;6208563;23;20021;-85
2023/06/24 09:21:07;;;;;;;4.53;3.88;;;;;;;;;;6211843;23;20012;-89
2023/06/24 09:23:36;;;;;;;5.55;4.18;;;;;;;;;;6209711;23;20027;-86
2023/06/24 09:26:02;;;;;;;4.82;3.33;;;;;;;;;;6211334;23;20023;-86
2023/06/24 09:28:28;;;;;;;8.07;4.18;;;;;;;;;;6208642;23;20178;-88
2023/06/24 09:31:06;;;;;;;5.28;3.03;;;;;;;;;;6185540;23;20287;-86
2023/06/24 09:33:34;;;;;;;3.50;2.97;;;;;;;;;;6209144;23;20017;-84
2023/06/24 09:36:02;;;;;;;5.18;2.65;;;;;;;;;;6209135;23;20013;-84
2023/06/24 09:38:35;;;;;;;4.93;2.67;;;;;;;;;;6211490;23;20441;-85
2023/06/24 09:41:05;;;;;;;3.30;3.00;;;;;;;;;;6184129;23;20338;-84
2023/06/24 09:43:31;;;;;;;3.40;2.90;;;;;;;;;;6209839;23;20025;-85
2023/06/24 09:45:58;;;;;;;5.50;3.40;;;;;;;;;;6209779;23;20088;-84
2023/06/24 09:48:25;;;;;;;4.47;2.72;;;;;;;;;;6209723;23;20062;-86
2023/06/24 09:50:51;;;;;;;3.40;2.70;;;;;;;;;;6207680;23;20350;-87
2023/06/24 09:53:18;;;;;;;5.38;2.60;;;;;;;;;;6209592;23;20013;-87
2023/06/24 09:55:46;;;;;;;3.47;2.70;;;;;;;;;;6210277;23;20016;-88
2023/06/24 09:58:14;;;;;;;4.30;2.70;;;;;;;;;;6209753;23;20375;-89
2023/06/24 10:00:40;;;;;;;3.70;2.92;;;;;;;;;;6210714;23;20096;-89
2023/06/24 10:03:07;;;;;;;2.92;2.65;;;;;;;;;;6207518;23;20079;-85
2023/06/24 10:05:33;;;;;;;4.53;2.72;;;;;;;;;;6208698;23;20017;-88
2023/06/24 10:07:59;;;;;;;3.92;2.70;;;;;;;;;;6209868;23;20028;-91
2023/06/24 10:10:25;;;;;;;3.17;2.88;;;;;;;;;;6207461;23;20067;-88
2023/06/24 10:12:52;;;;;;;3.63;2.67;;;;;;;;;;6211169;23;20020;-88
2023/06/24 10:15:18;;;;;;;5.90;2.47;;;;;;;;;;6208727;23;20016;-88
2023/06/24 10:17:45;;;;;;;4.95;2.78;;;;;;;;;;6207286;23;20028;-87
2023/06/24 10:20:12;;;;;;;3.25;2.80;;;;;;;;;;6212377;23;20008;-87
2023/06/24 10:22:38;;;;;;;2.97;2.67;;;;;;;;;;6211759;23;20020;-88
2023/06/24 10:25:07;;;;;;;3.15;2.83;;;;;;;;;;6210873;23;20091;-86
2023/06/24 10:27:39;;;;;;;3.10;2.53;;;;;;;;;;6210118;23;20023;-86
2023/06/24 10:30:08;;;;;;;4.45;2.80;;;;;;;;;;6209807;23;20067;-87
2023/06/24 10:32:44;;;;;;;5.22;2.63;;;;;;;;;;6208985;23;20056;-86
2023/06/24 10:35:27;;;;;;;3.38;2.55;;;;;;;;;;6211722;23;20012;-86
2023/06/24 10:37:57;;;;;;;3.20;2.90;;;;;;;;;;6210511;23;20020;-86
2023/06/24 10:40:37;;;;;;;4.07;2.70;;;;;;;;;;6208732;23;20013;-87
2023/06/24 10:43:23;;;;;;;3.50;2.88;;;;;;;;;;6211163;23;20008;-87
2023/06/24 10:45:50;;;;;;;2.72;2.30;;;;;;;;;;6184919;23;20074;-85
2023/06/24 10:48:16;;;;;;;3.15;2.80;;;;;;;;;;6209612;23;20027;-87
2023/06/24 10:50:42;;;;;;;3.63;3.00;;;;;;;;;;6209518;23;20021;-91
2023/06/24 10:53:08;;;;;;;5.10;2.75;;;;;;;;;;6210170;23;20445;-89
2023/06/24 10:55:36;;;;;;;2.88;2.47;;;;;;;;;;6209129;23;20048;-87
2023/06/24 10:58:09;;;;;;;3.22;2.67;;;;;;;;;;6209619;23;20021;-88
2023/06/24 11:00:35;;;;;;;3.53;2.95;;;;;;;;;;6211611;23;20083;-88
2023/06/24 11:03:11;;;;;;;3.22;2.88;;;;;;;;;;6208669;23;20016;-89
2023/06/24 11:05:43;;;;;;;3.75;2.60;;;;;;;;;;6210157;23;20020;-87
2023/06/24 11:08:10;;;;;;;3.30;3.00;;;;;;;;;;6208945;23;20016;-89
2023/06/24 11:10:43;;;;;;;4.07;2.63;;;;;;;;;;6210116;23;20009;-89
2023/06/24 11:13:09;;;;;;;4.07;2.65;;;;;;;;;;6207429;23;20071;-89
2023/06/24 11:15:35;;;;;;;4.43;2.78;;;;;;;;;;6210428;23;20017;-89
2023/06/24 11:18:04;;;;;;;3.72;2.53;;;;;;;;;;6209454;23;20043;-89
2023/06/24 11:20:30;;;;;;;3.47;2.28;;;;;;;;;;6208948;23;20016;-89
2023/06/24 11:22:56;;;;;;;2.60;2.40;;;;;;;;;;6209814;23;20039;-88
2023/06/24 11:25:22;;;;;;;3.95;2.80;;;;;;;;;;6183744;23;20077;-87
2023/06/24 11:27:51;;;;;;;3.40;3.08;;;;;;;;;;6184717;23;20027;-88
2023/06/24 11:30:17;;;;;;;3.20;2.90;;;;;;;;;;6208106;23;20024;-87
2023/06/24 11:32:44;;;;;;;3.08;2.78;;;;;;;;;;6209697;23;20381;-88
2023/06/24 11:35:11;;;;;;;4.53;3.03;;;;;;;;;;6210672;23;20084;-89
2023/06/24 11:37:37;;;;;;;3.38;2.85;;;;;;;;;;6209666;23;20024;-89
2023/06/24 11:40:07;;;;;;;3.00;2.60;;;;;;;;;;6209404;23;20016;-88
2023/06/24 11:42:37;;;;;;;3.50;2.80;;;;;;;;;;6209264;23;20027;-87
2023/06/24 11:45:04;;;;;;;3.47;3.17;;;;;;;;;;6209667;23;20039;-86
2023/06/24 11:47:34;;;;;;;3.42;2.83;;;;;;;;;;6209524;23;20023;-86
2023/06/24 11:50:02;;;;;;;3.53;2.85;;;;;;;;;;6209422;23;20016;-85
2023/06/24 11:52:45;;;;;;;3.38;3.08;;;;;;;;;;6209574;23;20070;-85
2023/06/24 11:55:18;;;;;;;2.83;2.63;;;;;;;;;;6208962;23;20028;-86
2023/06/24 11:57:54;;;;;;;4.00;3.47;;;;;;;;;;6209288;23;20024;-84
2023/06/24 12:00:24;;;;;;;5.97;3.65;;;;;;;;;;6210396;23;20017;-85
2023/06/24 12:02:51;;;;;;;4.03;3.05;;;;;;;;;;6208759;23;20017;-88
2023/06/24 12:05:26;;;;;;;4.55;3.25;;;;;;;;;;6208816;23;20023;-85
2023/06/24 12:07:52;;;;;;;4.43;2.85;;;;;;;;;;6211230;23;20009;-85
2023/06/24 12:10:18;;;;;;;3.17;2.58;;;;;;;;;;6209844;23;20023;-84
2023/06/24 12:12:44;;;;;;;3.22;2.92;;;;;;;;;;6207898;23;20029;-85
2023/06/24 12:15:10;;;;;;;3.10;2.80;;;;;;;;;;6208839;23;20044;-87
2023/06/24 12:17:36;;;;;;;4.18;2.90;;;;;;;;;;6211116;23;20044;-85
2023/06/24 12:20:03;;;;;;;3.38;2.80;;;;;;;;;;6210293;23;20048;-86
2023/06/24 12:22:29;;;;;;;3.70;2.97;;;;;;;;;;6208604;23;20017;-85
2023/06/24 12:24:55;;;;;;;3.83;2.50;;;;;;;;;;6208774;23;20389;-85
2023/06/24 12:27:21;;;;;;;3.05;2.75;;;;;;;;;;6211629;23;20017;-85
2023/06/24 12:29:47;;;;;;;3.95;2.50;;;;;;;;;;6210472;23;20020;-86
2023/06/24 12:32:13;;;;;;;4.32;2.75;;;;;;;;;;6211105;23;20016;-87
2023/06/24 12:34:39;;;;;;;3.03;2.60;;;;;;;;;;6210630;23;20044;-84
2023/06/24 12:37:05;;;;;;;3.00;2.70;;;;;;;;;;6210857;23;20020;-86
2023/06/24 12:39:31;;;;;;;4.22;3.78;;;;;;;;;;6212164;23;20016;-86
2023/06/24 12:41:57;;;;;;;3.13;2.50;;;;;;;;;;6212567;23;20015;-86
2023/06/24 12:44:23;;;;;;;3.15;2.80;;;;;;;;;;6210186;23;20438;-85
2023/06/24 12:46:49;;;;;;;3.53;2.60;;;;;;;;;;6211948;23;20096;-85
2023/06/24 12:49:15;;;;;;;3.72;2.92;;;;;;;;;;6212620;23;20020;-85
2023/06/24 12:51:42;;;;;;;4.53;2.92;;;;;;;;;;6210988;23;20048;-85
2023/06/24 12:54:08;;;;;;;2.65;2.40;;;;;;;;;;6210641;23;20021;-85
2023/06/24 12:56:34;;;;;;;2.97;2.70;;;;;;;;;;6210709;23;20016;-86
2023/06/24 12:59:00;;;;;;;3.13;2.83;;;;;;;;;;6210550;23;20337;-84
2023/06/24 13:01:26;;;;;;;3.67;2.65;;;;;;;;;;6210059;23;20088;-85
2023/06/24 13:03:52;;;;;;;2.88;2.50;;;;;;;;;;6211143;23;20288;-85
2023/06/24 13:06:18;;;;;;;3.25;2.75;;;;;;;;;;6212506;23;20016;-85
2023/06/24 13:08:44;;;;;;;3.70;2.72;;;;;;;;;;6212617;23;20052;-85
2023/06/24 13:11:10;;;;;;;4.38;3.30;;;;;;;;;;6209142;23;20013;-84
2023/06/24 13:13:36;;;;;;;2.97;2.65;;;;;;;;;;6211884;23;20017;-85
2023/06/24 13:16:02;;;;;;;4.05;3.33;;;;;;;;;;6212109;23;20087;-85
2023/06/24 13:18:28;;;;;;;4.10;2.72;;;;;;;;;;6212762;23;20338;-86
2023/06/24 13:20:54;;;;;;;3.92;2.80;;;;;;;;;;6212641;23;20024;-86
2023/06/24 13:23:20;;;;;;;3.40;2.90;;;;;;;;;;6210512;23;20023;-86
2023/06/24 13:25:47;;;;;;;3.35;2.63;;;;;;;;;;6209819;23;20346;-85
2023/06/24 13:28:13;;;;;;;4.75;2.95;;;;;;;;;;6211868;23;20017;-86
2023/06/24 13:30:39;;;;;;;3.83;2.65;;;;;;;;;;6210699;23;20319;-84
2023/06/24 13:33:05;;;;;;;3.22;2.47;;;;;;;;;;6212445;23;20100;-86
2023/06/24 13:35:31;;;;;;;3.67;3.00;;;;;;;;;;6212569;23;20145;-84
2023/06/24 13:37:58;;;;;;;3.67;2.80;;;;;;;;;;6210479;23;20016;-85
2023/06/24 13:40:24;;;;;;;5.00;3.10;;;;;;;;;;6211603;23;20080;-85
2023/06/24 13:42:50;;;;;;;3.10;2.55;;;;;;;;;;6210274;23;20265;-85
2023/06/24 13:45:16;;;;;;;3.72;3.10;;;;;;;;;;6209703;23;20043;-84
2023/06/24 13:47:43;;;;;;;3.40;2.90;;;;;;;;;;6210415;23;20028;-84
2023/06/24 13:50:09;;;;;;;3.17;2.40;;;;;;;;;;6210676;23;20474;-84
2023/06/24 13:52:35;;;;;;;2.95;2.67;;;;;;;;;;6212158;23;20024;-84
2023/06/24 13:55:01;;;;;;;3.28;2.75;;;;;;;;;;6184703;23;20078;-85
2023/06/24 13:57:27;;;;;;;3.83;3.05;;;;;;;;;;6209627;23;20021;-84
2023/06/24 13:59:53;;;;;;;2.97;2.72;;;;;;;;;;6212235;23;20104;-85
2023/06/24 14:02:19;;;;;;;2.65;2.45;;;;;;;;;;6209665;23;20047;-86
2023/06/24 14:04:45;;;;;;;2.58;2.38;;;;;;;;;;6211906;23;20017;-85
2023/06/24 14:07:11;;;;;;;2.90;2.17;;;;;;;;;;6212092;23;20020;-85
2023/06/24 14:09:39;;;;;;;3.05;2.35;;;;;;;;;;6210145;23;20044;-85
2023/06/24 14:12:06;;;;;;;3.40;3.10;;;;;;;;;;6211936;23;20071;-84
2023/06/24 14:14:32;;;;;;;3.08;2.58;;;;;;;;;;6210197;23;20468;-85
2023/06/24 14:16:58;;;;;;;2.58;2.38;;;;;;;;;;6210424;23;20574;-84
2023/06/24 14:19:24;;;;;;;3.80;2.63;;;;;;;;;;6211635;23;20066;-84
2023/06/24 14:21:50;;;;;;;3.15;2.22;;;;;;;;;;6210234;23;20127;-84
2023/06/24 14:24:16;;;;;;;4.30;2.40;;;;;;;;;;6210784;23;20099;-84
2023/06/24 14:26:42;;;;;;;3.38;2.60;;;;;;;;;;6210957;23;20013;-83
2023/06/24 14:29:08;;;;;;;3.28;2.88;;;;;;;;;;6209498;23;20473;-84
2023/06/24 14:31:34;;;;;;;3.85;2.83;;;;;;;;;;6210270;23;20064;-84
2023/06/24 14:34:00;;;;;;;3.75;2.80;;;;;;;;;;6209030;23;20055;-85
2023/06/24 14:36:26;;;;;;;2.63;2.42;;;;;;;;;;6211148;23;20040;-85
2023/06/24 14:38:52;;;;;;;3.78;2.55;;;;;;;;;;6209282;23;20028;-84
2023/06/24 14:41:18;;;;;;;2.55;2.13;;;;;;;;;;6209250;23;20036;-85